Time;durP1;ratioP1;P1;durP2;ratioP2;P2;SDS_P1;SDS_P2;PMS_P1;PMS_P2;Temp;Humidity;BMP_temperature;BMP_pressure;BME280_temperature;BME280_humidity;BME280_pressure;Samples;Min_cycle;Max_cycle;Signal;HPM_P1;HPM_P2
2023/06/09 00:01:44;;;;;;;5.28;3.10;;;;;;;;;;5115389;28;20452;-64
2023/06/09 00:04:13;;;;;;;7.13;3.20;;;;;;;;;;5100307;28;20432;-64
2023/06/09 00:06:39;;;;;;;6.32;3.17;;;;;;;;;;5095053;28;20020;-64
2023/06/09 00:09:06;;;;;;;6.22;3.60;;;;;;;;;;5093757;28;20032;-64
2023/06/09 00:11:34;;;;;;;9.15;4.55;;;;;;;;;;5094812;28;20093;-64
2023/06/09 00:14:00;;;;;;;8.88;3.85;;;;;;;;;;5094849;28;20027;-64
2023/06/09 00:16:28;;;;;;;6.82;3.90;;;;;;;;;;5094528;28;20020;-64
2023/06/09 00:18:55;;;;;;;8.02;3.78;;;;;;;;;;5094801;28;20072;-64
2023/06/09 00:21:21;;;;;;;6.97;3.53;;;;;;;;;;5094715;28;20029;-64
2023/06/09 00:23:47;;;;;;;9.75;4.70;;;;;;;;;;5094718;28;20031;-64
2023/06/09 00:26:13;;;;;;;10.73;4.30;;;;;;;;;;5094603;28;20039;-64
2023/06/09 00:28:39;;;;;;;11.55;4.88;;;;;;;;;;5094430;28;20036;-64
2023/06/09 00:31:05;;;;;;;8.90;4.32;;;;;;;;;;5094291;28;20095;-65
2023/06/09 00:33:31;;;;;;;7.05;4.00;;;;;;;;;;5094326;28;20119;-64
2023/06/09 00:35:56;;;;;;;8.30;4.13;;;;;;;;;;5093326;28;20053;-64
2023/06/09 00:38:22;;;;;;;6.57;3.90;;;;;;;;;;5096624;28;20016;-64
2023/06/09 00:40:49;;;;;;;6.65;3.50;;;;;;;;;;5114723;28;20027;-64
2023/06/09 00:43:15;;;;;;;6.43;3.33;;;;;;;;;;5114680;28;20459;-64
2023/06/09 00:45:40;;;;;;;8.35;4.10;;;;;;;;;;5114369;28;20031;-64
2023/06/09 00:48:07;;;;;;;8.15;4.30;;;;;;;;;;5114512;28;20048;-64
2023/06/09 00:50:33;;;;;;;7.75;4.18;;;;;;;;;;5114631;27;20032;-64
2023/06/09 00:52:59;;;;;;;8.20;4.53;;;;;;;;;;5114208;28;20032;-64
2023/06/09 00:55:26;;;;;;;10.75;5.10;;;;;;;;;;5114485;28;20544;-64
2023/06/09 00:57:55;;;;;;;8.13;3.85;;;;;;;;;;5114328;28;20098;-64
2023/06/09 01:00:28;;;;;;;6.45;4.03;;;;;;;;;;5113911;28;20473;-64
2023/06/09 01:03:01;;;;;;;6.65;3.85;;;;;;;;;;5109849;28;20084;-64
2023/06/09 01:05:38;;;;;;;7.72;4.20;;;;;;;;;;5094062;28;20493;-63
2023/06/09 01:08:22;;;;;;;7.45;3.65;;;;;;;;;;5093842;28;20448;-64
2023/06/09 01:11:00;;;;;;;8.52;4.30;;;;;;;;;;5093771;28;20457;-64
2023/06/09 01:13:50;;;;;;;6.90;3.70;;;;;;;;;;5093487;28;20040;-64
2023/06/09 01:16:22;;;;;;;8.73;4.03;;;;;;;;;;5093656;28;20024;-64
2023/06/09 01:18:50;;;;;;;6.90;3.97;;;;;;;;;;5093468;28;20476;-64
2023/06/09 01:21:35;;;;;;;9.18;3.92;;;;;;;;;;5093537;28;20043;-64
2023/06/09 01:24:14;;;;;;;8.55;4.10;;;;;;;;;;5093591;28;20028;-64
2023/06/09 01:26:40;;;;;;;7.03;4.10;;;;;;;;;;5093505;28;20236;-64
2023/06/09 01:29:06;;;;;;;8.27;4.40;;;;;;;;;;5093194;28;20048;-64
2023/06/09 01:31:33;;;;;;;8.70;4.00;;;;;;;;;;5093310;28;20052;-64
2023/06/09 01:34:00;;;;;;;8.77;4.20;;;;;;;;;;5093403;28;20032;-64
2023/06/09 01:36:26;;;;;;;9.38;4.30;;;;;;;;;;5093194;28;20035;-63
2023/06/09 01:38:52;;;;;;;8.63;4.53;;;;;;;;;;5099925;28;20108;-64
2023/06/09 01:41:17;;;;;;;8.40;4.55;;;;;;;;;;5113595;28;20031;-64
2023/06/09 01:43:43;;;;;;;11.52;4.68;;;;;;;;;;5113382;28;20366;-64
2023/06/09 01:46:08;;;;;;;9.13;4.28;;;;;;;;;;5113579;28;20047;-65
2023/06/09 01:48:49;;;;;;;8.57;4.13;;;;;;;;;;5113168;28;20042;-64
2023/06/09 01:51:41;;;;;;;8.93;3.97;;;;;;;;;;5113464;28;20461;-65
2023/06/09 01:54:10;;;;;;;11.70;4.75;;;;;;;;;;5113456;28;20035;-64
2023/06/09 01:56:43;;;;;;;8.07;4.30;;;;;;;;;;5113166;28;20050;-64
2023/06/09 01:59:13;;;;;;;9.15;4.50;;;;;;;;;;5113584;28;20024;-64
2023/06/09 02:01:41;;;;;;;8.30;4.60;;;;;;;;;;5113805;28;20545;-64
2023/06/09 02:04:09;;;;;;;7.88;4.20;;;;;;;;;;5098287;28;20032;-64
2023/06/09 02:06:35;;;;;;;6.32;3.92;;;;;;;;;;5093085;28;20159;-64
2023/06/09 02:09:01;;;;;;;9.00;4.63;;;;;;;;;;5091743;28;20089;-64
2023/06/09 02:11:27;;;;;;;8.48;5.05;;;;;;;;;;5092743;28;20408;-64
2023/06/09 02:13:53;;;;;;;13.68;5.03;;;;;;;;;;5092898;28;20546;-64
2023/06/09 02:16:18;;;;;;;9.13;4.22;;;;;;;;;;5092652;28;20021;-64
2023/06/09 02:18:44;;;;;;;10.05;4.57;;;;;;;;;;5092748;28;20028;-64
2023/06/09 02:21:10;;;;;;;6.93;4.03;;;;;;;;;;5092748;28;20500;-64
2023/06/09 02:23:39;;;;;;;8.02;4.13;;;;;;;;;;5092713;28;20040;-64
2023/06/09 02:26:06;;;;;;;7.10;4.22;;;;;;;;;;5092697;28;20024;-64
2023/06/09 02:28:31;;;;;;;11.15;4.70;;;;;;;;;;5092713;28;20073;-64
2023/06/09 02:30:57;;;;;;;7.72;4.10;;;;;;;;;;5092741;28;20024;-64
2023/06/09 02:33:24;;;;;;;10.65;4.50;;;;;;;;;;5092784;28;20032;-64
2023/06/09 02:35:50;;;;;;;8.93;4.50;;;;;;;;;;5092702;28;20028;-64
2023/06/09 02:38:15;;;;;;;9.73;4.65;;;;;;;;;;5094089;28;20024;-64
2023/06/09 02:40:48;;;;;;;8.25;4.75;;;;;;;;;;5112713;28;20023;-64
2023/06/09 02:43:14;;;;;;;10.48;4.63;;;;;;;;;;5113024;28;20031;-64
2023/06/09 02:45:40;;;;;;;12.10;5.55;;;;;;;;;;5112984;28;20380;-64
2023/06/09 02:48:05;;;;;;;7.13;4.60;;;;;;;;;;5112753;28;20067;-64
2023/06/09 02:50:31;;;;;;;9.40;4.45;;;;;;;;;;5112915;28;20051;-65
2023/06/09 02:52:56;;;;;;;6.95;4.35;;;;;;;;;;5112743;28;20124;-64
2023/06/09 02:55:22;;;;;;;11.05;5.13;;;;;;;;;;5112775;28;20035;-64
2023/06/09 02:57:48;;;;;;;15.80;5.20;;;;;;;;;;5112765;28;20020;-64
2023/06/09 03:00:14;;;;;;;15.15;5.18;;;;;;;;;;5112854;28;20047;-64
2023/06/09 03:02:41;;;;;;;11.40;4.80;;;;;;;;;;5110375;28;20031;-65
2023/06/09 03:05:07;;;;;;;11.77;5.35;;;;;;;;;;5092397;28;20024;-64
2023/06/09 03:07:33;;;;;;;10.52;4.88;;;;;;;;;;5092371;28;20028;-64
2023/06/09 03:10:00;;;;;;;9.88;4.90;;;;;;;;;;5092141;28;20073;-64
2023/06/09 03:12:25;;;;;;;9.95;5.25;;;;;;;;;;5090902;28;20388;-64
2023/06/09 03:14:51;;;;;;;11.27;4.82;;;;;;;;;;5093285;28;20020;-64
2023/06/09 03:17:17;;;;;;;10.45;5.45;;;;;;;;;;5095896;28;20020;-64
2023/06/09 03:19:42;;;;;;;11.32;5.63;;;;;;;;;;5095822;28;20024;-64
2023/06/09 03:22:08;;;;;;;10.13;5.63;;;;;;;;;;5095758;28;20473;-64
2023/06/09 03:24:33;;;;;;;13.95;5.72;;;;;;;;;;5095626;28;20031;-64
2023/06/09 03:26:59;;;;;;;12.25;5.72;;;;;;;;;;5095794;28;20036;-64
2023/06/09 03:29:24;;;;;;;15.40;5.82;;;;;;;;;;5095658;28;20032;-64
2023/06/09 03:31:50;;;;;;;12.05;6.10;;;;;;;;;;5095526;28;20469;-64
2023/06/09 03:34:15;;;;;;;8.57;4.97;;;;;;;;;;5095658;28;20111;-64
2023/06/09 03:36:41;;;;;;;13.07;5.35;;;;;;;;;;5095442;28;20077;-64
2023/06/09 03:39:07;;;;;;;23.17;6.20;;;;;;;;;;5103846;28;20485;-64
2023/06/09 03:41:33;;;;;;;13.90;5.72;;;;;;;;;;5115745;28;20020;-64
2023/06/09 03:43:59;;;;;;;7.88;4.70;;;;;;;;;;5115826;28;20032;-64
2023/06/09 03:46:25;;;;;;;13.50;5.00;;;;;;;;;;5115825;28;20099;-64
2023/06/09 03:48:51;;;;;;;10.55;4.95;;;;;;;;;;5115639;28;20419;-64
2023/06/09 03:51:17;;;;;;;10.38;4.50;;;;;;;;;;5115727;28;20433;-64
2023/06/09 03:53:42;;;;;;;11.52;4.57;;;;;;;;;;5114695;28;20063;-64
2023/06/09 03:56:08;;;;;;;9.10;3.97;;;;;;;;;;5082295;28;20119;-64
2023/06/09 03:58:34;;;;;;;7.13;3.67;;;;;;;;;;5089443;28;20028;-64
2023/06/09 04:01:00;;;;;;;7.32;3.65;;;;;;;;;;5074981;28;20063;-65
2023/06/09 04:03:25;;;;;;;9.27;4.03;;;;;;;;;;5083347;28;20024;-64
2023/06/09 04:05:51;;;;;;;8.10;4.45;;;;;;;;;;5094963;28;20046;-64
2023/06/09 04:08:16;;;;;;;7.53;4.47;;;;;;;;;;5094870;28;20052;-64
2023/06/09 04:10:42;;;;;;;5.70;3.67;;;;;;;;;;5094873;28;20020;-64
2023/06/09 04:13:09;;;;;;;6.45;3.85;;;;;;;;;;5094869;28;20024;-64
2023/06/09 04:15:35;;;;;;;5.53;3.85;;;;;;;;;;5094882;28;20028;-64
2023/06/09 04:18:01;;;;;;;5.65;3.58;;;;;;;;;;5094674;28;20385;-65
2023/06/09 04:20:26;;;;;;;6.75;3.83;;;;;;;;;;5094730;28;20036;-64
2023/06/09 04:22:52;;;;;;;6.20;4.00;;;;;;;;;;5094525;28;20031;-64
2023/06/09 04:25:27;;;;;;;8.40;3.92;;;;;;;;;;5094736;28;20465;-64
2023/06/09 04:27:54;;;;;;;7.65;3.50;;;;;;;;;;5094238;28;20016;-64
2023/06/09 04:30:25;;;;;;;7.65;3.92;;;;;;;;;;5094583;28;20103;-64
2023/06/09 04:32:54;;;;;;;6.20;3.83;;;;;;;;;;5094507;28;20024;-64
2023/06/09 04:35:22;;;;;;;5.40;3.33;;;;;;;;;;5094531;28;20107;-64
2023/06/09 04:37:49;;;;;;;9.27;4.15;;;;;;;;;;5094007;28;20129;-64
2023/06/09 04:40:25;;;;;;;8.10;3.85;;;;;;;;;;5112596;28;20059;-64
2023/06/09 04:42:52;;;;;;;8.32;3.85;;;;;;;;;;5114723;28;20027;-64
2023/06/09 04:45:20;;;;;;;6.45;4.22;;;;;;;;;;5114642;28;20032;-64
2023/06/09 04:47:48;;;;;;;8.90;3.50;;;;;;;;;;5114399;28;20035;-65
2023/06/09 04:50:15;;;;;;;8.90;4.25;;;;;;;;;;5114700;27;20156;-64
2023/06/09 04:52:42;;;;;;;6.97;4.00;;;;;;;;;;5114050;28;20035;-64
2023/06/09 04:55:08;;;;;;;8.82;4.00;;;;;;;;;;5114468;28;20027;-64
2023/06/09 04:57:34;;;;;;;8.52;3.80;;;;;;;;;;5114447;28;20445;-64
2023/06/09 05:00:15;;;;;;;7.15;3.53;;;;;;;;;;5114310;27;20024;-64
2023/06/09 05:02:42;;;;;;;4.63;3.45;;;;;;;;;;5112008;28;20024;-64
2023/06/09 05:05:09;;;;;;;6.18;3.47;;;;;;;;;;5093812;28;20035;-63
2023/06/09 05:07:35;;;;;;;5.40;3.30;;;;;;;;;;5093795;28;20024;-64
2023/06/09 05:10:01;;;;;;;5.07;3.03;;;;;;;;;;5093846;28;20020;-64
2023/06/09 05:12:26;;;;;;;4.38;2.88;;;;;;;;;;5093541;28;20027;-64
2023/06/09 05:14:52;;;;;;;5.93;2.92;;;;;;;;;;5093686;28;20469;-63
2023/06/09 05:17:17;;;;;;;8.13;3.58;;;;;;;;;;5093626;28;20036;-64
2023/06/09 05:19:43;;;;;;;5.45;3.03;;;;;;;;;;5093289;28;20073;-64
2023/06/09 05:22:08;;;;;;;6.97;3.30;;;;;;;;;;5093564;28;20112;-64
2023/06/09 05:24:34;;;;;;;5.95;3.05;;;;;;;;;;5093664;28;20032;-64
2023/06/09 05:26:59;;;;;;;6.03;3.28;;;;;;;;;;5093339;28;20056;-64
2023/06/09 05:29:25;;;;;;;7.97;3.42;;;;;;;;;;5093456;28;20024;-64
2023/06/09 05:31:50;;;;;;;7.97;3.38;;;;;;;;;;5093035;28;20024;-64
2023/06/09 05:34:16;;;;;;;6.75;2.92;;;;;;;;;;5093150;28;20024;-64
2023/06/09 05:36:41;;;;;;;6.38;2.97;;;;;;;;;;5093242;28;20107;-64
2023/06/09 05:39:08;;;;;;;6.53;3.17;;;;;;;;;;5100926;28;20381;-64
2023/06/09 05:41:34;;;;;;;6.20;3.67;;;;;;;;;;5113617;28;20036;-64
2023/06/09 05:43:59;;;;;;;7.72;3.88;;;;;;;;;;5113697;28;20031;-64
2023/06/09 05:46:25;;;;;;;6.53;3.28;;;;;;;;;;5113586;28;20024;-64
2023/06/09 05:48:51;;;;;;;5.05;3.22;;;;;;;;;;5113268;28;20489;-64
2023/06/09 05:51:17;;;;;;;9.82;4.47;;;;;;;;;;5113715;28;20034;-64
2023/06/09 05:53:43;;;;;;;15.75;9.00;;;;;;;;;;5113207;28;20464;-64
2023/06/09 05:56:09;;;;;;;9.48;4.47;;;;;;;;;;5113435;28;20058;-64
2023/06/09 05:58:35;;;;;;;9.30;3.90;;;;;;;;;;5113344;28;20518;-64
2023/06/09 06:01:02;;;;;;;8.20;4.30;;;;;;;;;;5113267;28;20035;-64
2023/06/09 06:03:28;;;;;;;7.97;3.60;;;;;;;;;;5103941;28;20111;-64
2023/06/09 06:05:54;;;;;;;9.57;3.42;;;;;;;;;;5092881;28;20047;-64
2023/06/09 06:08:20;;;;;;;6.40;3.20;;;;;;;;;;5093029;28;20032;-64
2023/06/09 06:10:45;;;;;;;6.85;3.15;;;;;;;;;;5092982;28;20429;-64
2023/06/09 06:13:12;;;;;;;5.85;3.20;;;;;;;;;;5092719;28;20093;-64
2023/06/09 06:15:38;;;;;;;8.77;3.20;;;;;;;;;;5092893;28;20028;-64
2023/06/09 06:18:03;;;;;;;7.10;3.45;;;;;;;;;;5092535;28;20504;-64
2023/06/09 06:20:29;;;;;;;6.65;3.15;;;;;;;;;;5092734;28;20462;-64
2023/06/09 06:22:54;;;;;;;5.88;3.28;;;;;;;;;;5092679;28;20119;-64
2023/06/09 06:25:21;;;;;;;7.07;3.42;;;;;;;;;;5092597;28;20020;-64
2023/06/09 06:27:46;;;;;;;10.77;4.07;;;;;;;;;;5092803;28;20403;-64
2023/06/09 06:30:12;;;;;;;5.30;3.33;;;;;;;;;;5092607;28;20103;-64
2023/06/09 06:32:39;;;;;;;4.38;3.08;;;;;;;;;;5095837;28;20165;-64
2023/06/09 06:35:07;;;;;;;4.85;3.33;;;;;;;;;;5094328;28;20043;-64
2023/06/09 06:37:33;;;;;;;6.88;3.45;;;;;;;;;;5091509;28;20116;-64
2023/06/09 06:39:58;;;;;;;6.55;3.60;;;;;;;;;;5094303;28;20074;-64
2023/06/09 06:42:24;;;;;;;6.05;3.70;;;;;;;;;;5107232;28;20085;-65
2023/06/09 06:44:49;;;;;;;8.68;3.45;;;;;;;;;;5112872;28;20032;-64
2023/06/09 06:47:15;;;;;;;6.97;3.90;;;;;;;;;;5102317;28;20182;-65
2023/06/09 06:49:41;;;;;;;6.95;4.00;;;;;;;;;;5084678;28;20028;-64
2023/06/09 06:52:06;;;;;;;7.05;4.20;;;;;;;;;;5079312;28;20025;-64
2023/06/09 06:54:32;;;;;;;5.35;3.63;;;;;;;;;;5094752;28;20062;-64
2023/06/09 06:56:57;;;;;;;5.47;3.30;;;;;;;;;;5095907;28;20069;-64
2023/06/09 06:59:22;;;;;;;11.40;3.22;;;;;;;;;;5096219;28;20047;-64
2023/06/09 07:01:48;;;;;;;5.65;3.75;;;;;;;;;;5095722;28;20031;-64
2023/06/09 07:04:13;;;;;;;9.38;3.35;;;;;;;;;;5080547;28;20099;-64
2023/06/09 07:06:39;;;;;;;6.88;3.97;;;;;;;;;;5088946;28;20224;-64
2023/06/09 07:09:04;;;;;;;5.80;3.35;;;;;;;;;;5095625;28;20024;-64
2023/06/09 07:11:33;;;;;;;7.65;3.95;;;;;;;;;;5095985;28;20032;-64
2023/06/09 07:13:58;;;;;;;6.05;3.72;;;;;;;;;;5094657;28;20181;-64
2023/06/09 07:16:23;;;;;;;6.07;3.58;;;;;;;;;;5095446;28;20114;-64
2023/06/09 07:18:49;;;;;;;8.35;3.75;;;;;;;;;;5095389;28;20039;-64
2023/06/09 07:21:14;;;;;;;12.27;4.25;;;;;;;;;;5095503;28;20028;-64
2023/06/09 07:23:40;;;;;;;6.63;3.67;;;;;;;;;;5083265;28;20126;-64
2023/06/09 07:26:05;;;;;;;5.15;3.33;;;;;;;;;;5074904;28;20061;-64
2023/06/09 07:28:31;;;;;;;6.38;3.97;;;;;;;;;;5074869;28;20048;-64
2023/06/09 07:30:56;;;;;;;5.25;3.45;;;;;;;;;;5074794;28;20156;-64
2023/06/09 07:33:22;;;;;;;10.68;3.80;;;;;;;;;;5075009;28;20086;-64
2023/06/09 07:35:52;;;;;;;10.18;4.10;;;;;;;;;;5074949;28;20035;-64
2023/06/09 07:38:20;;;;;;;7.60;3.83;;;;;;;;;;5092589;28;20019;-64
2023/06/09 07:40:46;;;;;;;5.50;3.53;;;;;;;;;;5115686;28;20023;-63
2023/06/09 07:43:11;;;;;;;5.28;3.63;;;;;;;;;;5101454;28;20107;-64
2023/06/09 07:45:37;;;;;;;7.45;4.03;;;;;;;;;;5094736;28;20469;-64
2023/06/09 07:48:02;;;;;;;7.15;3.75;;;;;;;;;;5094848;28;20048;-64
2023/06/09 07:50:28;;;;;;;9.88;3.83;;;;;;;;;;5094746;28;20028;-65
2023/06/09 07:52:53;;;;;;;15.20;3.65;;;;;;;;;;5095011;28;20127;-65
2023/06/09 07:55:19;;;;;;;8.20;3.92;;;;;;;;;;5094999;28;20473;-65
2023/06/09 07:57:45;;;;;;;11.00;3.63;;;;;;;;;;5083250;28;20051;-65
2023/06/09 08:00:12;;;;;;;7.47;3.65;;;;;;;;;;5074413;28;20388;-64
2023/06/09 08:02:41;;;;;;;10.73;3.55;;;;;;;;;;5077253;28;20537;-65
2023/06/09 08:05:07;;;;;;;6.03;3.53;;;;;;;;;;5115229;28;20365;-64
2023/06/09 08:07:32;;;;;;;11.15;3.60;;;;;;;;;;5115169;28;20106;-64
2023/06/09 08:09:57;;;;;;;8.50;3.70;;;;;;;;;;5115060;28;20338;-65
2023/06/09 08:12:23;;;;;;;4.18;3.13;;;;;;;;;;5114891;28;20027;-65
2023/06/09 08:14:48;;;;;;;4.35;3.30;;;;;;;;;;5114823;28;20372;-64
2023/06/09 08:17:14;;;;;;;6.65;3.08;;;;;;;;;;5114849;28;20350;-65
2023/06/09 08:19:39;;;;;;;5.75;3.58;;;;;;;;;;5105061;28;20591;-65
2023/06/09 08:22:05;;;;;;;6.35;3.33;;;;;;;;;;5094430;28;20420;-65
2023/06/09 08:24:30;;;;;;;4.13;2.78;;;;;;;;;;5094449;28;20390;-65
2023/06/09 08:26:58;;;;;;;5.00;2.65;;;;;;;;;;5094358;28;20386;-65
2023/06/09 08:29:23;;;;;;;6.45;2.83;;;;;;;;;;5094230;28;20040;-65
2023/06/09 08:31:49;;;;;;;9.13;2.72;;;;;;;;;;5094159;28;20025;-65
2023/06/09 08:34:14;;;;;;;5.38;2.80;;;;;;;;;;5094384;28;20542;-65
2023/06/09 08:36:41;;;;;;;5.93;2.90;;;;;;;;;;5094062;28;20349;-65
2023/06/09 08:39:06;;;;;;;4.63;2.88;;;;;;;;;;5102595;28;20035;-64
2023/06/09 08:41:37;;;;;;;8.32;2.85;;;;;;;;;;5114461;28;20020;-64
2023/06/09 08:44:04;;;;;;;8.85;2.83;;;;;;;;;;5073655;28;20123;-64
2023/06/09 08:46:35;;;;;;;6.72;2.90;;;;;;;;;;5073751;28;20055;-64
2023/06/09 08:49:02;;;;;;;5.50;2.95;;;;;;;;;;5073581;28;20504;-65
2023/06/09 08:51:28;;;;;;;5.00;2.90;;;;;;;;;;5091701;28;20024;-65
2023/06/09 08:53:54;;;;;;;3.70;2.58;;;;;;;;;;5092589;28;20035;-65
2023/06/09 08:56:23;;;;;;;4.53;2.83;;;;;;;;;;5093889;28;20020;-64
2023/06/09 08:58:50;;;;;;;;;;;;;;;;;;5073721;28;20107;-65
2023/06/09 09:01:19;;;;;;;6.07;2.90;;;;;;;;;;5073507;28;19958;-65
2023/06/09 09:03:47;;;;;;;5.40;2.90;;;;;;;;;;5095746;28;20028;-64
2023/06/09 09:06:13;;;;;;;8.33;2.80;;;;;;;;;;5113900;28;20032;-64
2023/06/09 09:08:39;;;;;;;5.40;2.60;;;;;;;;;;5113892;28;20562;-64
2023/06/09 09:11:05;;;;;;;7.80;3.20;;;;;;;;;;5113832;28;20052;-64
2023/06/09 09:13:31;;;;;;;26.65;3.55;;;;;;;;;;5113484;28;20107;-66
2023/06/09 09:16:00;;;;;;;4.28;2.88;;;;;;;;;;5113846;28;20032;-64
2023/06/09 09:18:34;;;;;;;5.68;2.50;;;;;;;;;;5113712;28;20393;-65
2023/06/09 09:21:01;;;;;;;4.55;2.30;;;;;;;;;;5103494;27;20039;-64
2023/06/09 09:23:32;;;;;;;3.25;2.47;;;;;;;;;;5093338;28;20428;-64
2023/06/09 09:26:00;;;;;;;9.45;2.70;;;;;;;;;;5093083;28;20024;-64
2023/06/09 09:28:25;;;;;;;28.00;4.53;;;;;;;;;;5093129;28;20032;-64
2023/06/09 09:30:54;;;;;;;11.65;3.08;;;;;;;;;;5092565;28;20346;-65
2023/06/09 09:33:22;;;;;;;3.85;2.92;;;;;;;;;;5092965;28;20035;-65
2023/06/09 09:35:50;;;;;;;9.07;3.20;;;;;;;;;;5093070;28;20435;-65
2023/06/09 09:38:21;;;;;;;8.18;3.30;;;;;;;;;;5094118;28;20016;-64
2023/06/09 09:40:51;;;;;;;7.32;3.80;;;;;;;;;;5113299;28;20023;-64
2023/06/09 09:43:18;;;;;;;7.75;4.15;;;;;;;;;;5098788;28;20016;-67
2023/06/09 09:45:46;;;;;;;10.73;4.88;;;;;;;;;;5092915;28;20381;-64
2023/06/09 09:48:14;;;;;;;6.40;3.78;;;;;;;;;;5092657;28;20036;-64
2023/06/09 09:50:41;;;;;;;12.55;4.57;;;;;;;;;;5092372;28;20028;-64
2023/06/09 09:53:07;;;;;;;11.10;5.00;;;;;;;;;;5092513;28;20043;-65
2023/06/09 09:55:45;;;;;;;8.13;3.92;;;;;;;;;;5092592;28;20385;-65
2023/06/09 09:58:12;;;;;;;7.18;4.90;;;;;;;;;;5077443;28;20024;-64
2023/06/09 10:00:40;;;;;;;7.50;4.70;;;;;;;;;;5072701;28;20025;-65
2023/06/09 10:03:25;;;;;;;8.73;4.70;;;;;;;;;;5083906;28;20027;-65
2023/06/09 10:05:52;;;;;;;9.35;4.40;;;;;;;;;;5113023;28;20035;-65
2023/06/09 10:08:21;;;;;;;11.48;4.53;;;;;;;;;;5112890;28;20023;-65
2023/06/09 10:10:47;;;;;;;;;;;;;;;;;;5113133;28;20034;-65
2023/06/09 10:13:14;;;;;;;5.75;3.55;;;;;;;;;;5112761;28;20010;-65
2023/06/09 10:15:42;;;;;;;5.97;3.78;;;;;;;;;;5113004;28;20030;-65
2023/06/09 10:18:08;;;;;;;6.53;4.03;;;;;;;;;;5113001;28;20038;-66
2023/06/09 10:20:35;;;;;;;7.03;4.32;;;;;;;;;;5112517;28;20032;-65
2023/06/09 10:23:01;;;;;;;9.20;4.15;;;;;;;;;;5092400;28;20107;-64
2023/06/09 10:25:27;;;;;;;8.13;4.97;;;;;;;;;;5093217;28;20051;-65
2023/06/09 10:27:52;;;;;;;6.55;4.70;;;;;;;;;;5096726;28;20024;-65
2023/06/09 10:30:20;;;;;;;10.70;6.53;;;;;;;;;;5096630;28;20466;-65
2023/06/09 10:33:15;;;;;;;15.65;7.07;;;;;;;;;;5096473;28;20028;-65
2023/06/09 10:35:43;;;;;;;9.13;4.95;;;;;;;;;;5089511;28;20040;-65
2023/06/09 10:38:45;;;;;;;7.72;4.25;;;;;;;;;;5096607;28;20031;-65
2023/06/09 10:41:33;;;;;;;9.15;4.90;;;;;;;;;;5053814;28;20126;-66
2023/06/09 10:44:17;;;;;;;8.85;4.53;;;;;;;;;;5014296;28;20074;-66
2023/06/09 10:46:45;;;;;;;9.63;5.40;;;;;;;;;;5014333;28;20133;-65
2023/06/09 10:49:25;;;;;;;9.85;4.35;;;;;;;;;;5014104;28;20046;-65
2023/06/09 10:51:52;;;;;;;10.45;4.53;;;;;;;;;;5033728;28;20491;-66
2023/06/09 10:54:22;;;;;;;9.18;5.25;;;;;;;;;;5033680;28;20111;-64
2023/06/09 10:56:52;;;;;;;10.02;4.20;;;;;;;;;;5030030;28;20026;-64
2023/06/09 10:59:23;;;;;;;7.97;4.60;;;;;;;;;;5014190;28;20030;-65
2023/06/09 11:02:01;;;;;;;6.78;4.20;;;;;;;;;;5013836;28;20356;-64
2023/06/09 11:04:43;;;;;;;7.75;3.83;;;;;;;;;;5030299;28;20533;-64
2023/06/09 11:07:21;;;;;;;6.25;3.28;;;;;;;;;;5033371;28;20051;-64
2023/06/09 11:09:46;;;;;;;7.18;3.60;;;;;;;;;;5033492;28;20037;-65
2023/06/09 11:12:49;;;;;;;5.32;3.60;;;;;;;;;;5033304;28;20033;-65
2023/06/09 11:15:15;;;;;;;7.43;3.20;;;;;;;;;;5029470;28;20441;-64
2023/06/09 11:17:52;;;;;;;7.97;3.22;;;;;;;;;;5071647;28;20049;-64
2023/06/09 11:20:23;;;;;;;6.25;3.22;;;;;;;;;;5075293;28;20025;-63
2023/06/09 11:22:48;;;;;;;9.00;3.78;;;;;;;;;;5090556;28;20115;-64
2023/06/09 11:25:17;;;;;;;5.30;3.70;;;;;;;;;;5095641;28;20107;-64
2023/06/09 11:27:46;;;;;;;4.95;3.53;;;;;;;;;;5095444;28;20030;-66
2023/06/09 11:30:17;;;;;;;5.43;3.63;;;;;;;;;;5095377;28;20024;-65
2023/06/09 11:33:00;;;;;;;6.57;3.28;;;;;;;;;;5095560;28;20050;-64
2023/06/09 11:35:29;;;;;;;6.20;3.42;;;;;;;;;;5095497;28;20028;-65
2023/06/09 11:37:56;;;;;;;7.03;3.38;;;;;;;;;;5094021;28;20050;-64
2023/06/09 11:40:22;;;;;;;7.30;3.47;;;;;;;;;;5114413;28;20410;-65
2023/06/09 11:42:48;;;;;;;6.18;3.08;;;;;;;;;;5105196;28;20359;-65
2023/06/09 11:45:15;;;;;;;5.53;3.30;;;;;;;;;;5095379;28;20038;-65
2023/06/09 11:47:42;;;;;;;6.95;3.08;;;;;;;;;;5094915;28;20542;-65
2023/06/09 11:50:11;;;;;;;8.70;3.60;;;;;;;;;;5094928;28;20491;-65
2023/06/09 11:52:41;;;;;;;6.95;3.20;;;;;;;;;;5094530;28;20031;-65
2023/06/09 11:55:09;;;;;;;7.45;3.20;;;;;;;;;;5095136;28;20016;-65
2023/06/09 11:57:36;;;;;;;8.77;3.00;;;;;;;;;;5084628;28;20013;-64
2023/06/09 12:00:15;;;;;;;7.15;4.20;;;;;;;;;;5074837;28;20374;-65
2023/06/09 12:02:41;;;;;;;6.38;3.38;;;;;;;;;;5078756;28;20097;-66
2023/06/09 12:05:08;;;;;;;9.40;3.47;;;;;;;;;;5115138;28;20080;-66
2023/06/09 12:07:35;;;;;;;6.32;3.38;;;;;;;;;;5115056;28;20024;-64
2023/06/09 12:10:00;;;;;;;7.82;3.17;;;;;;;;;;5115201;28;20023;-64
2023/06/09 12:12:26;;;;;;;7.63;3.05;;;;;;;;;;5115022;28;20118;-64
2023/06/09 12:14:51;;;;;;;5.85;3.08;;;;;;;;;;5115108;28;20027;-64
2023/06/09 12:17:17;;;;;;;9.55;3.13;;;;;;;;;;5115058;28;20039;-64
2023/06/09 12:19:42;;;;;;;5.07;2.92;;;;;;;;;;5115108;28;20381;-65
2023/06/09 12:22:08;;;;;;;5.68;3.15;;;;;;;;;;5111699;28;20096;-64
2023/06/09 12:24:33;;;;;;;6.82;2.97;;;;;;;;;;5093285;28;20035;-64
2023/06/09 12:27:13;;;;;;;8.43;3.17;;;;;;;;;;5093125;28;20026;-65
2023/06/09 12:29:39;;;;;;;17.05;3.50;;;;;;;;;;5094417;28;20032;-65
2023/06/09 12:32:05;;;;;;;5.40;2.83;;;;;;;;;;5094276;28;20032;-65
2023/06/09 12:34:32;;;;;;;6.20;3.05;;;;;;;;;;5094091;28;20028;-65
2023/06/09 12:36:58;;;;;;;8.13;3.03;;;;;;;;;;5094153;28;20048;-65
2023/06/09 12:39:30;;;;;;;8.15;3.13;;;;;;;;;;5105064;28;20034;-65
2023/06/09 12:41:55;;;;;;;7.13;3.00;;;;;;;;;;5111438;28;20022;-65
2023/06/09 12:44:23;;;;;;;5.13;2.78;;;;;;;;;;5093714;28;20440;-65
2023/06/09 12:46:54;;;;;;;6.07;3.10;;;;;;;;;;5093986;28;20488;-65
2023/06/09 12:49:32;;;;;;;5.43;2.72;;;;;;;;;;5093332;28;20463;-65
2023/06/09 12:52:02;;;;;;;7.32;2.97;;;;;;;;;;5093850;28;20032;-65
2023/06/09 12:54:27;;;;;;;9.85;3.10;;;;;;;;;;5093682;28;20032;-65
2023/06/09 12:56:56;;;;;;;7.10;3.00;;;;;;;;;;5089334;28;20370;-65
2023/06/09 12:59:23;;;;;;;6.03;2.67;;;;;;;;;;5073605;28;20028;-65
2023/06/09 13:01:49;;;;;;;6.75;3.00;;;;;;;;;;5073362;28;20051;-65
2023/06/09 13:04:17;;;;;;;6.70;2.80;;;;;;;;;;5103314;28;20035;-65
2023/06/09 13:06:43;;;;;;;13.55;3.20;;;;;;;;;;5113916;28;20034;-65
2023/06/09 13:09:09;;;;;;;10.57;2.85;;;;;;;;;;5113370;28;20028;-66
2023/06/09 13:11:35;;;;;;;6.43;2.63;;;;;;;;;;5113722;28;20028;-65
2023/06/09 13:14:01;;;;;;;7.32;2.60;;;;;;;;;;5113653;28;20031;-66
2023/06/09 13:16:26;;;;;;;13.13;3.28;;;;;;;;;;5113883;28;20043;-65
2023/06/09 13:18:52;;;;;;;7.75;2.80;;;;;;;;;;5113501;28;20016;-65
2023/06/09 13:21:17;;;;;;;6.95;2.85;;;;;;;;;;5113654;28;20103;-65
2023/06/09 13:23:43;;;;;;;6.20;2.70;;;;;;;;;;5104262;28;20439;-65
2023/06/09 13:26:10;;;;;;;7.22;3.03;;;;;;;;;;5093225;28;20028;-65
2023/06/09 13:28:35;;;;;;;9.73;3.00;;;;;;;;;;5093218;28;20024;-64
2023/06/09 13:31:01;;;;;;;7.90;3.30;;;;;;;;;;5092776;28;20481;-66
2023/06/09 13:33:26;;;;;;;5.82;2.53;;;;;;;;;;5092720;28;20028;-64
2023/06/09 13:35:52;;;;;;;6.28;2.97;;;;;;;;;;5093100;28;20029;-64
2023/06/09 13:38:18;;;;;;;7.53;2.70;;;;;;;;;;5094327;28;20470;-64
2023/06/09 13:40:45;;;;;;;7.35;3.13;;;;;;;;;;5113310;28;20031;-64
2023/06/09 13:43:14;;;;;;;6.93;2.72;;;;;;;;;;5099552;28;20118;-64
2023/06/09 13:45:40;;;;;;;6.25;2.40;;;;;;;;;;5092730;28;20082;-64
2023/06/09 13:48:06;;;;;;;10.05;2.95;;;;;;;;;;5092470;28;20102;-67
2023/06/09 13:50:32;;;;;;;7.75;3.10;;;;;;;;;;5092727;28;20125;-65
2023/06/09 13:52:59;;;;;;;7.82;2.92;;;;;;;;;;5092811;28;20119;-66
2023/06/09 13:55:24;;;;;;;7.70;3.03;;;;;;;;;;5092632;28;20488;-64
2023/06/09 13:57:50;;;;;;;6.38;2.78;;;;;;;;;;5080124;28;20032;-63
2023/06/09 14:00:16;;;;;;;7.57;3.00;;;;;;;;;;5071537;28;20024;-64
2023/06/09 14:02:42;;;;;;;11.18;3.08;;;;;;;;;;5076481;28;20031;-64
2023/06/09 14:05:10;;;;;;;14.07;2.58;;;;;;;;;;5112866;28;20111;-64
2023/06/09 14:07:36;;;;;;;5.72;2.70;;;;;;;;;;5112857;28;20027;-64
2023/06/09 14:10:05;;;;;;;6.65;2.60;;;;;;;;;;5112891;28;20392;-64
2023/06/09 14:12:30;;;;;;;7.82;3.13;;;;;;;;;;5112619;28;20473;-64
2023/06/09 14:14:56;;;;;;;10.43;2.70;;;;;;;;;;5112644;28;20029;-64
2023/06/09 14:17:21;;;;;;;7.95;2.72;;;;;;;;;;5112480;28;20081;-64
2023/06/09 14:19:47;;;;;;;6.43;2.78;;;;;;;;;;5112872;28;20023;-65
2023/06/09 14:22:13;;;;;;;9.20;2.53;;;;;;;;;;5112648;28;20094;-64
2023/06/09 14:24:38;;;;;;;7.60;2.60;;;;;;;;;;5106473;28;20028;-65
2023/06/09 14:27:05;;;;;;;6.40;2.63;;;;;;;;;;5092202;28;20028;-64
2023/06/09 14:29:32;;;;;;;9.27;2.83;;;;;;;;;;5092253;28;20035;-64
2023/06/09 14:31:59;;;;;;;8.98;2.65;;;;;;;;;;5091918;28;20028;-64
2023/06/09 14:34:24;;;;;;;5.60;2.72;;;;;;;;;;5092234;28;20032;-64
2023/06/09 14:36:51;;;;;;;8.90;2.67;;;;;;;;;;5092219;28;20081;-64
2023/06/09 14:39:17;;;;;;;5.65;2.70;;;;;;;;;;5101992;28;20031;-64
2023/06/09 14:41:44;;;;;;;6.55;2.60;;;;;;;;;;5111237;28;20024;-64
2023/06/09 14:44:10;;;;;;;11.95;3.80;;;;;;;;;;5090650;28;20036;-64